sensor_id;sensor_type;location;lat;lon;timestamp;pressure;altitude;pressure_sealevel;temperature;humidity
15260;BME280;34462;51.368;12.364;2022-09-17T00:01:38;19915.47;;;-141.84;63.36
15260;BME280;34462;51.368;12.364;2022-09-17T00:04:06;19917.50;;;-141.84;64.15
15260;BME280;34462;51.368;12.364;2022-09-17T00:06:35;19925.63;;;-141.84;63.19
15260;BME280;34462;51.368;12.364;2022-09-17T00:09:06;19915.47;;;-141.84;62.88
15260;BME280;34462;51.368;12.364;2022-09-17T00:11:37;19919.53;;;-141.84;63.45
15260;BME280;34462;51.368;12.364;2022-09-17T00:14:11;19884.97;;;-141.84;63.92
15260;BME280;34462;51.368;12.364;2022-09-17T00:16:43;19911.41;;;-141.84;63.82
15260;BME280;34462;51.368;12.364;2022-09-17T00:19:16;19929.69;;;-141.84;62.48
15260;BME280;34462;51.368;12.364;2022-09-17T00:21:45;19966.28;;;-141.84;63.20
15260;BME280;34462;51.368;12.364;2022-09-17T00:24:17;19917.50;;;-141.84;63.37
15260;BME280;34462;51.368;12.364;2022-09-17T00:26:45;19923.59;;;-141.84;62.67
15260;BME280;34462;51.368;12.364;2022-09-17T00:29:14;19972.38;;;-141.84;62.46
15260;BME280;34462;51.368;12.364;2022-09-17T00:31:42;19956.09;;;-141.84;62.35
15260;BME280;34462;51.368;12.364;2022-09-17T00:34:10;19943.91;;;-141.84;62.13
15260;BME280;34462;51.368;12.364;2022-09-17T00:36:39;19962.19;;;-141.84;62.14
15260;BME280;34462;51.368;12.364;2022-09-17T00:39:10;19947.97;;;-141.84;62.29
15260;BME280;34462;51.368;12.364;2022-09-17T00:41:43;19966.28;;;-141.84;62.27
15260;BME280;34462;51.368;12.364;2022-09-17T00:44:43;19933.75;;;-141.84;62.48
15260;BME280;34462;51.368;12.364;2022-09-17T00:47:23;19964.25;;;-141.84;62.87
15260;BME280;34462;51.368;12.364;2022-09-17T00:49:56;19970.34;;;-141.84;62.94
15260;BME280;34462;51.368;12.364;2022-09-17T00:52:31;19990.66;;;-141.84;61.68
15260;BME280;34462;51.368;12.364;2022-09-17T00:55:10;19960.16;;;-141.84;62.50
15260;BME280;34462;51.368;12.364;2022-09-17T00:57:42;19966.28;;;-141.84;62.09
15260;BME280;34462;51.368;12.364;2022-09-17T01:00:14;19992.69;;;-141.84;61.93
15260;BME280;34462;51.368;12.364;2022-09-17T01:02:42;19947.97;;;-141.84;62.79
15260;BME280;34462;51.368;12.364;2022-09-17T01:05:11;19960.16;;;-141.84;62.66
15260;BME280;34462;51.368;12.364;2022-09-17T01:08:00;19915.47;;;-141.84;62.90
15260;BME280;34462;51.368;12.364;2022-09-17T01:10:51;19947.97;;;-141.84;62.99
15260;BME280;34462;51.368;12.364;2022-09-17T01:13:40;19935.78;;;-141.84;62.86
15260;BME280;34462;51.368;12.364;2022-09-17T01:16:19;19954.06;;;-141.84;62.99
15260;BME280;34462;51.368;12.364;2022-09-17T01:19:05;19962.19;;;-141.84;62.75
15260;BME280;34462;51.368;12.364;2022-09-17T01:21:50;19939.84;;;-141.84;63.00
15260;BME280;34462;51.368;12.364;2022-09-17T01:24:47;19915.47;;;-141.84;63.46
15260;BME280;34462;51.368;12.364;2022-09-17T01:28:02;19935.78;;;-141.84;63.49
15260;BME280;34462;51.368;12.364;2022-09-17T01:34:13;19968.31;;;-141.84;63.00
15260;BME280;34462;51.368;12.364;2022-09-17T01:36:58;19986.59;;;-141.84;62.53
15260;BME280;34462;51.368;12.364;2022-09-17T01:39:39;19972.38;;;-141.84;62.77
15260;BME280;34462;51.368;12.364;2022-09-17T01:42:19;19960.16;;;-141.84;62.66
15260;BME280;34462;51.368;12.364;2022-09-17T01:45:00;19921.56;;;-141.84;63.89
15260;BME280;34462;51.368;12.364;2022-09-17T01:47:37;19956.09;;;-141.84;63.07
15260;BME280;34462;51.368;12.364;2022-09-17T01:50:11;19929.69;;;-141.84;63.01
15260;BME280;34462;51.368;12.364;2022-09-17T01:52:46;19968.31;;;-141.84;63.00
15260;BME280;34462;51.368;12.364;2022-09-17T01:55:17;19905.28;;;-141.84;64.13
15260;BME280;34462;51.368;12.364;2022-09-17T01:57:51;19968.31;;;-141.84;63.35
15260;BME280;34462;51.368;12.364;2022-09-17T02:00:21;19915.47;;;-141.84;63.43
15260;BME280;34462;51.368;12.364;2022-09-17T02:02:58;19911.41;;;-141.84;63.88
15260;BME280;34462;51.368;12.364;2022-09-17T02:05:33;19935.78;;;-141.84;62.86
15260;BME280;34462;51.368;12.364;2022-09-17T02:08:08;19958.13;;;-141.84;63.12
15260;BME280;34462;51.368;12.364;2022-09-17T02:10:44;19960.16;;;-141.84;62.45
15260;BME280;34462;51.368;12.364;2022-09-17T02:13:19;19921.56;;;-141.84;63.56
15260;BME280;34462;51.368;12.364;2022-09-17T02:15:56;19943.91;;;-141.84;63.73
15260;BME280;34462;51.368;12.364;2022-09-17T02:18:36;19921.56;;;-141.84;63.75
15260;BME280;34462;51.368;12.364;2022-09-17T02:21:11;19921.56;;;-141.84;64.49
15260;BME280;34462;51.368;12.364;2022-09-17T02:23:47;19945.94;;;-141.84;64.25
15260;BME280;34462;51.368;12.364;2022-09-17T02:26:19;19923.59;;;-141.84;63.82
15260;BME280;34462;51.368;12.364;2022-09-17T02:28:57;19901.22;;;-141.84;64.01
15260;BME280;34462;51.368;12.364;2022-09-17T02:31:26;19901.22;;;-141.84;64.23
15260;BME280;34462;51.368;12.364;2022-09-17T02:34:00;19891.06;;;-141.84;64.83
15260;BME280;34462;51.368;12.364;2022-09-17T02:36:31;19880.91;;;-141.84;65.09
15260;BME280;34462;51.368;12.364;2022-09-17T02:39:03;19915.47;;;-141.84;64.43
15260;BME280;34462;51.368;12.364;2022-09-17T02:41:45;19915.47;;;-141.84;64.29
15260;BME280;34462;51.368;12.364;2022-09-17T02:44:26;19911.41;;;-141.84;64.40
15260;BME280;34462;51.368;12.364;2022-09-17T02:47:18;19899.19;;;-141.84;65.10
15260;BME280;34462;51.368;12.364;2022-09-17T02:50:17;19850.41;;;-141.84;65.57
15260;BME280;34462;51.368;12.364;2022-09-17T02:53:03;19876.84;;;-141.84;65.32
15260;BME280;34462;51.368;12.364;2022-09-17T02:55:40;19864.66;;;-141.84;65.65
15260;BME280;34462;51.368;12.364;2022-09-17T02:58:21;19880.91;;;-141.84;66.07
15260;BME280;34462;51.368;12.364;2022-09-17T03:00:56;19848.38;;;-141.84;65.60
15260;BME280;34462;51.368;12.364;2022-09-17T03:03:33;19817.91;;;-141.84;65.63
15260;BME280;34462;51.368;12.364;2022-09-17T03:06:05;19830.09;;;-141.84;65.53
15260;BME280;34462;51.368;12.364;2022-09-17T03:08:39;19834.16;;;-141.84;65.00
15260;BME280;34462;51.368;12.364;2022-09-17T03:11:10;19838.22;;;-141.84;65.93
15260;BME280;34462;51.368;12.364;2022-09-17T03:13:39;19807.75;;;-141.84;67.95
15260;BME280;34462;51.368;12.364;2022-09-17T03:16:08;19765.06;;;-141.84;68.78
15260;BME280;34462;51.368;12.364;2022-09-17T03:18:36;19787.41;;;-141.84;69.41
15260;BME280;34462;51.368;12.364;2022-09-17T03:21:05;19742.72;;;-141.84;69.47
15260;BME280;34462;51.368;12.364;2022-09-17T03:23:33;19683.78;;;-141.84;70.58
15260;BME280;34462;51.368;12.364;2022-09-17T03:26:01;19687.84;;;-141.84;70.67
15260;BME280;34462;51.368;12.364;2022-09-17T03:28:29;19673.59;;;-141.84;70.20
15260;BME280;34462;51.368;12.364;2022-09-17T03:30:57;19683.78;;;-141.84;69.83
15260;BME280;34462;51.368;12.364;2022-09-17T03:33:25;19673.59;;;-141.84;70.65
15260;BME280;34462;51.368;12.364;2022-09-17T03:35:53;19675.63;;;-141.84;69.88
15260;BME280;34462;51.368;12.364;2022-09-17T03:38:23;19663.44;;;-141.84;69.45
15260;BME280;34462;51.368;12.364;2022-09-17T03:40:58;19724.41;;;-141.84;69.43
15260;BME280;34462;51.368;12.364;2022-09-17T03:43:26;19691.91;;;-141.84;69.15
15260;BME280;34462;51.368;12.364;2022-09-17T03:45:55;19661.41;;;-141.84;69.87
15260;BME280;34462;51.368;12.364;2022-09-17T03:48:23;19639.06;;;-141.84;70.56
15260;BME280;34462;51.368;12.364;2022-09-17T03:50:51;19596.38;;;-141.84;71.11
15260;BME280;34462;51.368;12.364;2022-09-17T03:53:19;19574.03;;;-141.84;72.13
15260;BME280;34462;51.368;12.364;2022-09-17T03:55:49;19511.03;;;-141.84;73.41
15260;BME280;34462;51.368;12.364;2022-09-17T03:58:17;19557.78;;;-141.84;72.69
15260;BME280;34462;51.368;12.364;2022-09-17T04:00:47;19492.75;;;-141.84;73.62
15260;BME280;34462;51.368;12.364;2022-09-17T04:03:19;19433.81;;;-141.84;74.84
15260;BME280;34462;51.368;12.364;2022-09-17T04:05:47;19338.28;;;-141.84;76.23
15260;BME280;34462;51.368;12.364;2022-09-17T04:08:16;19218.41;;;-141.84;78.06
15260;BME280;34462;51.368;12.364;2022-09-17T04:10:44;19206.22;;;-141.84;79.07
15260;BME280;34462;51.368;12.364;2022-09-17T04:13:15;19139.16;;;-141.84;80.16
15260;BME280;34462;51.368;12.364;2022-09-17T04:15:45;19131.03;;;-141.84;80.24
15260;BME280;34462;51.368;12.364;2022-09-17T04:18:13;19102.56;;;-141.84;81.20
15260;BME280;34462;51.368;12.364;2022-09-17T04:20:41;19098.50;;;-141.84;80.62
15260;BME280;34462;51.368;12.364;2022-09-17T04:23:11;19074.13;;;-141.84;81.41
15260;BME280;34462;51.368;12.364;2022-09-17T04:25:39;19074.13;;;-141.84;80.65
15260;BME280;34462;51.368;12.364;2022-09-17T04:28:07;19055.84;;;-141.84;80.90
15260;BME280;34462;51.368;12.364;2022-09-17T04:30:37;19043.66;;;-141.84;82.17
15260;BME280;34462;51.368;12.364;2022-09-17T04:33:05;19049.75;;;-141.84;82.37
15260;BME280;34462;51.368;12.364;2022-09-17T04:35:33;19029.44;;;-141.84;83.13
15260;BME280;34462;51.368;12.364;2022-09-17T04:38:01;19013.16;;;-141.84;83.17
15260;BME280;34462;51.368;12.364;2022-09-17T04:40:29;18990.81;;;-141.84;82.44
15260;BME280;34462;51.368;12.364;2022-09-17T04:42:59;18964.41;;;-141.84;83.42
15260;BME280;34462;51.368;12.364;2022-09-17T04:45:29;18909.53;;;-141.84;83.75
15260;BME280;34462;51.368;12.364;2022-09-17T04:48:01;18919.69;;;-141.84;84.94
15260;BME280;34462;51.368;12.364;2022-09-17T04:50:29;18879.06;;;-141.84;84.74
15260;BME280;34462;51.368;12.364;2022-09-17T04:52:57;18877.03;;;-141.84;85.10
15260;BME280;34462;51.368;12.364;2022-09-17T04:55:25;18887.19;;;-141.84;84.69
15260;BME280;34462;51.368;12.364;2022-09-17T04:57:54;18852.66;;;-141.84;83.18
15260;BME280;34462;51.368;12.364;2022-09-17T05:00:23;18838.44;;;-141.84;83.74
15260;BME280;34462;51.368;12.364;2022-09-17T05:02:54;18793.72;;;-141.84;84.49
15260;BME280;34462;51.368;12.364;2022-09-17T05:05:23;18820.16;;;-141.84;84.74
15260;BME280;34462;51.368;12.364;2022-09-17T05:07:52;18801.84;;;-141.84;84.59
15260;BME280;34462;51.368;12.364;2022-09-17T05:10:22;18767.31;;;-141.84;85.25
15260;BME280;34462;51.368;12.364;2022-09-17T05:12:53;18738.88;;;-141.84;85.56
15260;BME280;34462;51.368;12.364;2022-09-17T05:15:24;18773.41;;;-141.84;86.23
15260;BME280;34462;51.368;12.364;2022-09-17T05:17:53;18738.88;;;-141.84;85.82
15260;BME280;34462;51.368;12.364;2022-09-17T05:20:23;18726.69;;;-141.84;85.29
15260;BME280;34462;51.368;12.364;2022-09-17T05:22:51;18753.09;;;-141.84;84.15
15260;BME280;34462;51.368;12.364;2022-09-17T05:25:21;18718.56;;;-141.84;84.12
15260;BME280;34462;51.368;12.364;2022-09-17T05:27:51;18738.88;;;-141.84;83.17
15260;BME280;34462;51.368;12.364;2022-09-17T05:30:20;18712.47;;;-141.84;83.53
15260;BME280;34462;51.368;12.364;2022-09-17T05:32:48;18702.28;;;-141.84;82.58
15260;BME280;34462;51.368;12.364;2022-09-17T05:35:16;18749.03;;;-141.84;82.68
15260;BME280;34462;51.368;12.364;2022-09-17T05:37:46;18751.06;;;-141.84;81.52
15260;BME280;34462;51.368;12.364;2022-09-17T05:40:14;18757.16;;;-141.84;81.00
15260;BME280;34462;51.368;12.364;2022-09-17T05:42:42;18730.75;;;-141.84;80.93
15260;BME280;34462;51.368;12.364;2022-09-17T05:45:10;18781.53;;;-141.84;80.61
15260;BME280;34462;51.368;12.364;2022-09-17T05:47:38;18744.97;;;-141.84;80.12
15260;BME280;34462;51.368;12.364;2022-09-17T05:50:07;18809.97;;;-141.84;79.88
15260;BME280;34462;51.368;12.364;2022-09-17T05:52:35;18805.91;;;-141.84;77.99
15260;BME280;34462;51.368;12.364;2022-09-17T05:55:05;18834.38;;;-141.84;77.63
15260;BME280;34462;51.368;12.364;2022-09-17T05:57:33;18850.63;;;-141.84;77.68
15260;BME280;34462;51.368;12.364;2022-09-17T06:00:02;18866.88;;;-141.84;77.02
15260;BME280;34462;51.368;12.364;2022-09-17T06:02:31;18901.41;;;-141.84;75.70
15260;BME280;34462;51.368;12.364;2022-09-17T06:04:59;18881.09;;;-141.84;76.54
15260;BME280;34462;51.368;12.364;2022-09-17T06:07:28;18907.50;;;-141.84;75.45
15260;BME280;34462;51.368;12.364;2022-09-17T06:09:56;18927.84;;;-141.84;75.45
15260;BME280;34462;51.368;12.364;2022-09-17T06:12:25;18935.97;;;-141.84;74.85
15260;BME280;34462;51.368;12.364;2022-09-17T06:14:53;18929.88;;;-141.84;74.94
15260;BME280;34462;51.368;12.364;2022-09-17T06:17:22;18958.31;;;-141.84;74.24
15260;BME280;34462;51.368;12.364;2022-09-17T06:19:50;18940.03;;;-141.84;73.50
15260;BME280;34462;51.368;12.364;2022-09-17T06:22:18;19011.13;;;-141.84;72.20
15260;BME280;34462;51.368;12.364;2022-09-17T06:24:46;19009.09;;;-141.84;71.70
15260;BME280;34462;51.368;12.364;2022-09-17T06:27:14;19013.16;;;-141.84;72.78
15260;BME280;34462;51.368;12.364;2022-09-17T06:29:44;19055.84;;;-141.84;72.82
15260;BME280;34462;51.368;12.364;2022-09-17T06:32:12;19070.06;;;-141.84;70.93
15260;BME280;34462;51.368;12.364;2022-09-17T06:34:42;19118.84;;;-141.84;70.04
15260;BME280;34462;51.368;12.364;2022-09-17T06:37:10;19129.00;;;-141.84;69.84
15260;BME280;34462;51.368;12.364;2022-09-17T06:39:38;19179.78;;;-141.84;68.72
15260;BME280;34462;51.368;12.364;2022-09-17T06:42:06;19155.41;;;-141.84;69.15
15260;BME280;34462;51.368;12.364;2022-09-17T06:44:35;19232.63;;;-141.84;68.23
15260;BME280;34462;51.368;12.364;2022-09-17T06:47:04;19313.91;;;-141.84;65.84
15260;BME280;34462;51.368;12.364;2022-09-17T06:49:33;19358.63;;;-141.84;65.72
15260;BME280;34462;51.368;12.364;2022-09-17T06:52:01;19338.28;;;-141.84;65.48
15260;BME280;34462;51.368;12.364;2022-09-17T06:54:29;19403.31;;;-141.84;65.82
15260;BME280;34462;51.368;12.364;2022-09-17T06:56:57;19417.56;;;-141.84;65.42
15260;BME280;34462;51.368;12.364;2022-09-17T06:59:25;19460.22;;;-141.84;64.67
15260;BME280;34462;51.368;12.364;2022-09-17T07:01:54;19391.13;;;-141.84;65.41
15260;BME280;34462;51.368;12.364;2022-09-17T07:04:23;19521.19;;;-141.84;63.54
15260;BME280;34462;51.368;12.364;2022-09-17T07:06:51;19626.88;;;-141.84;62.61
15260;BME280;34462;51.368;12.364;2022-09-17T07:09:19;19683.78;;;-141.84;62.52
15260;BME280;34462;51.368;12.364;2022-09-17T07:11:49;19769.13;;;-141.84;61.23
15260;BME280;34462;51.368;12.364;2022-09-17T07:14:17;19765.06;;;-141.84;61.51
15260;BME280;34462;51.368;12.364;2022-09-17T07:16:46;19740.69;;;-141.84;61.23
15260;BME280;34462;51.368;12.364;2022-09-17T07:19:14;19700.03;;;-141.84;62.48
15260;BME280;34462;51.368;12.364;2022-09-17T07:21:47;19695.97;;;-141.84;62.44
15260;BME280;34462;51.368;12.364;2022-09-17T07:24:15;19785.38;;;-141.84;61.84
15260;BME280;34462;51.368;12.364;2022-09-17T07:26:43;19850.41;;;-141.84;60.75
15260;BME280;34462;51.368;12.364;2022-09-17T07:29:11;19874.81;;;-141.84;60.99
15260;BME280;34462;51.368;12.364;2022-09-17T07:31:39;19868.72;;;-141.84;61.03
15260;BME280;34462;51.368;12.364;2022-09-17T07:34:08;19939.84;;;-141.84;60.07
15260;BME280;34462;51.368;12.364;2022-09-17T07:36:37;19964.25;;;-141.84;60.45
15260;BME280;34462;51.368;12.364;2022-09-17T07:39:06;20041.47;;;-141.84;58.90
15260;BME280;34462;51.368;12.364;2022-09-17T07:41:35;20051.63;;;-141.84;59.42
15260;BME280;34462;51.368;12.364;2022-09-17T07:44:03;20074.00;;;-141.84;58.14
15260;BME280;34462;51.368;12.364;2022-09-17T07:46:32;20025.22;;;-141.84;59.20
15260;BME280;34462;51.368;12.364;2022-09-17T07:49:01;20051.63;;;-141.84;59.32
15260;BME280;34462;51.368;12.364;2022-09-17T07:51:29;20055.69;;;-141.84;58.58
15260;BME280;34462;51.368;12.364;2022-09-17T07:53:58;20159.34;;;-141.84;55.41
15260;BME280;34462;51.368;12.364;2022-09-17T07:56:29;20171.56;;;-141.84;55.57
15260;BME280;34462;51.368;12.364;2022-09-17T07:58:57;20216.25;;;-141.84;55.52
15260;BME280;34462;51.368;12.364;2022-09-17T08:01:25;20230.50;;;-141.84;54.33
15260;BME280;34462;51.368;12.364;2022-09-17T08:03:54;20228.47;;;-141.84;54.98
15260;BME280;34462;51.368;12.364;2022-09-17T08:06:24;20236.59;;;-141.84;54.93
15260;BME280;34462;51.368;12.364;2022-09-17T08:08:55;20305.69;;;-141.84;54.73
15260;BME280;34462;51.368;12.364;2022-09-17T08:11:26;20360.59;;;-141.84;54.06
15260;BME280;34462;51.368;12.364;2022-09-17T08:14:15;20360.59;;;-141.84;52.71
15260;BME280;34462;51.368;12.364;2022-09-17T08:16:43;20342.28;;;-141.84;52.47
15260;BME280;34462;51.368;12.364;2022-09-17T08:19:13;20358.56;;;-141.84;52.72
15260;BME280;34462;51.368;12.364;2022-09-17T08:21:41;20358.56;;;-141.84;53.76
15260;BME280;34462;51.368;12.364;2022-09-17T08:24:09;20407.34;;;-141.84;52.07
15260;BME280;34462;51.368;12.364;2022-09-17T08:26:37;20384.97;;;-141.84;52.42
15260;BME280;34462;51.368;12.364;2022-09-17T08:29:06;20366.69;;;-141.84;53.43
15260;BME280;34462;51.368;12.364;2022-09-17T08:31:35;20427.66;;;-141.84;52.98
15260;BME280;34462;51.368;12.364;2022-09-17T08:34:07;20419.53;;;-141.84;53.13
15260;BME280;34462;51.368;12.364;2022-09-17T08:36:36;20403.25;;;-141.84;52.18
15260;BME280;34462;51.368;12.364;2022-09-17T08:39:04;20421.56;;;-141.84;52.60
15260;BME280;34462;51.368;12.364;2022-09-17T08:41:48;20435.78;;;-141.84;52.53
15260;BME280;34462;51.368;12.364;2022-09-17T08:44:25;20387.00;;;-141.84;52.84
15260;BME280;34462;51.368;12.364;2022-09-17T08:47:01;20417.50;;;-141.84;52.57
15260;BME280;34462;51.368;12.364;2022-09-17T08:49:35;20445.94;;;-141.84;51.50
15260;BME280;34462;51.368;12.364;2022-09-17T08:52:45;20492.72;;;-141.84;51.64
15260;BME280;34462;51.368;12.364;2022-09-17T08:55:30;20484.56;;;-141.84;50.43
15260;BME280;34462;51.368;12.364;2022-09-17T08:58:44;20529.28;;;-141.84;51.50
15260;BME280;34462;51.368;12.364;2022-09-17T09:01:30;20537.44;;;-141.84;51.04
15260;BME280;34462;51.368;12.364;2022-09-17T09:04:34;20494.75;;;-141.84;51.87
15260;BME280;34462;51.368;12.364;2022-09-17T09:07:12;20454.09;;;-141.84;53.38
15260;BME280;34462;51.368;12.364;2022-09-17T09:09:49;20423.59;;;-141.84;56.02
15260;BME280;34462;51.368;12.364;2022-09-17T09:12:24;20407.34;;;-141.84;56.02
15260;BME280;34462;51.368;12.364;2022-09-17T09:14:58;20447.97;;;-141.84;53.03
15260;BME280;34462;51.368;12.364;2022-09-17T09:17:31;20515.06;;;-141.84;53.40
15260;BME280;34462;51.368;12.364;2022-09-17T09:20:04;20541.50;;;-141.84;51.29
15260;BME280;34462;51.368;12.364;2022-09-17T09:22:45;20486.59;;;-141.84;51.21
15260;BME280;34462;51.368;12.364;2022-09-17T09:25:23;20580.13;;;-141.84;51.28
15260;BME280;34462;51.368;12.364;2022-09-17T09:28:24;20545.56;;;-141.84;51.81
15260;BME280;34462;51.368;12.364;2022-09-17T09:31:22;20557.75;;;-141.84;50.02
15260;BME280;34462;51.368;12.364;2022-09-17T09:33:56;20610.59;;;-141.84;49.45
15260;BME280;34462;51.368;12.364;2022-09-17T09:36:29;20663.47;;;-141.84;49.96
15260;BME280;34462;51.368;12.364;2022-09-17T09:39:01;20594.34;;;-141.84;50.67
15260;BME280;34462;51.368;12.364;2022-09-17T09:41:39;20600.44;;;-141.84;50.62
15260;BME280;34462;51.368;12.364;2022-09-17T09:44:13;20639.06;;;-141.84;49.66
15260;BME280;34462;51.368;12.364;2022-09-17T09:50:05;20649.22;;;-141.84;49.16
15260;BME280;34462;51.368;12.364;2022-09-17T09:52:51;20659.38;;;-141.84;48.22
15260;BME280;34462;51.368;12.364;2022-09-17T09:55:54;20657.34;;;-141.84;48.33
15260;BME280;34462;51.368;12.364;2022-09-17T09:58:33;20661.44;;;-141.84;48.45
15260;BME280;34462;51.368;12.364;2022-09-17T10:01:10;20663.47;;;-141.84;48.51
15260;BME280;34462;51.368;12.364;2022-09-17T10:03:41;20657.34;;;-141.84;49.52
15260;BME280;34462;51.368;12.364;2022-09-17T10:06:13;20687.84;;;-141.84;48.27
15260;BME280;34462;51.368;12.364;2022-09-17T10:09:10;20700.03;;;-141.84;48.64
15260;BME280;34462;51.368;12.364;2022-09-17T10:11:39;20722.41;;;-141.84;47.94
15260;BME280;34462;51.368;12.364;2022-09-17T10:14:21;20734.59;;;-141.84;47.21
15260;BME280;34462;51.368;12.364;2022-09-17T10:17:12;20836.25;;;-141.84;46.83
15260;BME280;34462;51.368;12.364;2022-09-17T10:19:44;20746.81;;;-141.84;46.03
15260;BME280;34462;51.368;12.364;2022-09-17T10:22:25;20712.25;;;-141.84;47.24
15260;BME280;34462;51.368;12.364;2022-09-17T10:24:56;20728.50;;;-141.84;45.55
15260;BME280;34462;51.368;12.364;2022-09-17T10:27:27;20738.66;;;-141.84;46.71
15260;BME280;34462;51.368;12.364;2022-09-17T10:30:13;20614.66;;;-141.84;47.72
15260;BME280;34462;51.368;12.364;2022-09-17T10:32:43;20622.81;;;-141.84;47.51
15260;BME280;34462;51.368;12.364;2022-09-17T10:35:25;20659.38;;;-141.84;48.00
15260;BME280;34462;51.368;12.364;2022-09-17T10:37:54;20698.00;;;-141.84;47.62
15260;BME280;34462;51.368;12.364;2022-09-17T10:40:29;20769.16;;;-141.84;46.16
15260;BME280;34462;51.368;12.364;2022-09-17T10:43:20;20842.34;;;-141.84;45.29
15260;BME280;34462;51.368;12.364;2022-09-17T10:45:58;20842.34;;;-141.84;45.12
15260;BME280;34462;51.368;12.364;2022-09-17T10:48:31;20864.72;;;-141.84;44.36
15260;BME280;34462;51.368;12.364;2022-09-17T10:51:01;20858.59;;;-141.84;43.40
15260;BME280;34462;51.368;12.364;2022-09-17T10:54:14;20889.09;;;-141.84;43.09
15260;BME280;34462;51.368;12.364;2022-09-17T10:56:53;20968.38;;;-141.84;42.74
15260;BME280;34462;51.368;12.364;2022-09-17T10:59:57;20982.63;;;-141.84;42.87
15260;BME280;34462;51.368;12.364;2022-09-17T11:06:17;20870.81;;;-141.84;44.71
15260;BME280;34462;51.368;12.364;2022-09-17T11:09:02;20874.88;;;-141.84;45.51
15260;BME280;34462;51.368;12.364;2022-09-17T11:11:52;20866.75;;;-141.84;47.09
15260;BME280;34462;51.368;12.364;2022-09-17T11:14:42;20830.16;;;-141.84;47.31
15260;BME280;34462;51.368;12.364;2022-09-17T11:17:42;20799.66;;;-141.84;49.31
15260;BME280;34462;51.368;12.364;2022-09-17T11:20:31;20594.34;;;-141.84;53.62
15260;BME280;34462;51.368;12.364;2022-09-17T11:23:26;20435.78;;;-141.84;56.46
15260;BME280;34462;51.368;12.364;2022-09-17T11:26:02;20340.25;;;-141.84;57.62
15260;BME280;34462;51.368;12.364;2022-09-17T11:28:48;20328.06;;;-141.84;58.89
15260;BME280;34462;51.368;12.364;2022-09-17T11:31:44;20269.13;;;-141.84;60.70
15260;BME280;34462;51.368;12.364;2022-09-17T11:34:27;20269.13;;;-141.84;60.24
15260;BME280;34462;51.368;12.364;2022-09-17T11:37:04;20236.59;;;-141.84;60.45
15260;BME280;34462;51.368;12.364;2022-09-17T11:39:46;20244.72;;;-141.84;59.29
15260;BME280;34462;51.368;12.364;2022-09-17T11:42:21;20263.00;;;-141.84;60.31
15260;BME280;34462;51.368;12.364;2022-09-17T11:44:54;20311.78;;;-141.84;59.71
15260;BME280;34462;51.368;12.364;2022-09-17T11:47:32;20352.44;;;-141.84;56.71
15260;BME280;34462;51.368;12.364;2022-09-17T11:50:57;20391.06;;;-141.84;56.40
15260;BME280;34462;51.368;12.364;2022-09-17T11:53:34;20470.34;;;-141.84;55.99
15260;BME280;34462;51.368;12.364;2022-09-17T11:56:09;20490.66;;;-141.84;56.20
15260;BME280;34462;51.368;12.364;2022-09-17T11:58:47;20466.28;;;-141.84;57.13
15260;BME280;34462;51.368;12.364;2022-09-17T12:01:26;20500.84;;;-141.84;56.58
15260;BME280;34462;51.368;12.364;2022-09-17T12:04:01;20574.00;;;-141.84;54.76
15260;BME280;34462;51.368;12.364;2022-09-17T12:06:41;20543.53;;;-141.84;55.56
15260;BME280;34462;51.368;12.364;2022-09-17T12:09:16;20521.16;;;-141.84;55.73
15260;BME280;34462;51.368;12.364;2022-09-17T12:11:55;20576.03;;;-141.84;54.35
15260;BME280;34462;51.368;12.364;2022-09-17T12:14:44;20655.31;;;-141.84;51.80
15260;BME280;34462;51.368;12.364;2022-09-17T12:17:21;20689.88;;;-141.84;51.26
15260;BME280;34462;51.368;12.364;2022-09-17T12:19:56;20683.78;;;-141.84;49.62
15260;BME280;34462;51.368;12.364;2022-09-17T12:22:30;20689.88;;;-141.84;49.00
15260;BME280;34462;51.368;12.364;2022-09-17T12:25:11;20756.97;;;-141.84;48.31
15260;BME280;34462;51.368;12.364;2022-09-17T12:27:50;20756.97;;;-141.84;47.98
15260;BME280;34462;51.368;12.364;2022-09-17T12:30:23;20732.56;;;-141.84;46.19
15260;BME280;34462;51.368;12.364;2022-09-17T12:33:13;20693.94;;;-141.84;47.38
15260;BME280;34462;51.368;12.364;2022-09-17T12:36:17;20645.16;;;-141.84;48.00
15260;BME280;34462;51.368;12.364;2022-09-17T12:39:11;20655.31;;;-141.84;47.37
15260;BME280;34462;51.368;12.364;2022-09-17T12:41:55;20748.84;;;-141.84;46.00
15260;BME280;34462;51.368;12.364;2022-09-17T12:44:54;20826.09;;;-141.84;45.76
15260;BME280;34462;51.368;12.364;2022-09-17T12:47:54;20929.75;;;-141.84;42.71
15260;BME280;34462;51.368;12.364;2022-09-17T12:50:41;20939.94;;;-141.84;41.17
15260;BME280;34462;51.368;12.364;2022-09-17T12:53:27;21035.47;;;-141.84;41.80
15260;BME280;34462;51.368;12.364;2022-09-17T12:56:16;21019.22;;;-141.84;40.41
15260;BME280;34462;51.368;12.364;2022-09-17T12:59:05;21045.63;;;-141.84;41.14
15260;BME280;34462;51.368;12.364;2022-09-17T13:01:44;21021.25;;;-141.84;41.17
15260;BME280;34462;51.368;12.364;2022-09-17T13:04:34;20968.38;;;-141.84;42.30
15260;BME280;34462;51.368;12.364;2022-09-17T13:08:12;21055.81;;;-141.84;41.85
15260;BME280;34462;51.368;12.364;2022-09-17T13:11:34;21063.94;;;-141.84;41.80
15260;BME280;34462;51.368;12.364;2022-09-17T13:14:17;21002.94;;;-141.84;41.54
15260;BME280;34462;51.368;12.364;2022-09-17T13:16:55;20856.56;;;-141.84;44.88
15260;BME280;34462;51.368;12.364;2022-09-17T13:19:34;20655.31;;;-141.84;46.46
15260;BME280;34462;51.368;12.364;2022-09-17T13:22:16;20604.50;;;-141.84;48.12
15260;BME280;34462;51.368;12.364;2022-09-17T13:25:01;20539.47;;;-141.84;47.77